sensor_id;sensor_type;location;lat;lon;timestamp;P1;durP1;ratioP1;P2;durP2;ratioP2
6751;SDS011;3413;47.680;9.166;2024-03-25T00:02:07;3.00;;;0.97;;
6751;SDS011;3413;47.680;9.166;2024-03-25T00:07:08;1.70;;;1.10;;
6751;SDS011;3413;47.680;9.166;2024-03-25T00:12:09;3.47;;;1.00;;
6751;SDS011;3413;47.680;9.166;2024-03-25T00:17:10;2.37;;;1.00;;
6751;SDS011;3413;47.680;9.166;2024-03-25T00:22:11;3.37;;;1.47;;
6751;SDS011;3413;47.680;9.166;2024-03-25T00:27:12;2.80;;;1.40;;
6751;SDS011;3413;47.680;9.166;2024-03-25T00:32:14;3.93;;;1.20;;
6751;SDS011;3413;47.680;9.166;2024-03-25T00:37:15;1.90;;;1.20;;
6751;SDS011;3413;47.680;9.166;2024-03-25T00:42:16;2.67;;;1.33;;
6751;SDS011;3413;47.680;9.166;2024-03-25T00:47:17;1.57;;;1.10;;
6751;SDS011;3413;47.680;9.166;2024-03-25T00:52:18;2.23;;;1.50;;
6751;SDS011;3413;47.680;9.166;2024-03-25T00:57:19;5.70;;;1.43;;
6751;SDS011;3413;47.680;9.166;2024-03-25T01:02:20;1.53;;;1.10;;
6751;SDS011;3413;47.680;9.166;2024-03-25T01:07:21;1.87;;;1.23;;
6751;SDS011;3413;47.680;9.166;2024-03-25T01:12:22;6.20;;;1.60;;
6751;SDS011;3413;47.680;9.166;2024-03-25T01:17:23;1.90;;;1.17;;
6751;SDS011;3413;47.680;9.166;2024-03-25T01:22:24;3.03;;;1.00;;
6751;SDS011;3413;47.680;9.166;2024-03-25T01:27:25;4.33;;;1.50;;
6751;SDS011;3413;47.680;9.166;2024-03-25T01:32:26;1.70;;;0.97;;
6751;SDS011;3413;47.680;9.166;2024-03-25T01:37:33;1.77;;;0.90;;
6751;SDS011;3413;47.680;9.166;2024-03-25T01:42:42;1.83;;;1.10;;
6751;SDS011;3413;47.680;9.166;2024-03-25T01:47:47;2.23;;;1.00;;
6751;SDS011;3413;47.680;9.166;2024-03-25T01:53:11;2.70;;;1.00;;
6751;SDS011;3413;47.680;9.166;2024-03-25T01:58:21;2.30;;;1.27;;
6751;SDS011;3413;47.680;9.166;2024-03-25T02:03:27;2.53;;;1.13;;
6751;SDS011;3413;47.680;9.166;2024-03-25T02:08:34;4.53;;;1.10;;
6751;SDS011;3413;47.680;9.166;2024-03-25T02:13:45;1.87;;;0.90;;
6751;SDS011;3413;47.680;9.166;2024-03-25T02:19:15;1.73;;;1.30;;
6751;SDS011;3413;47.680;9.166;2024-03-25T02:29:36;3.00;;;0.93;;
6751;SDS011;3413;47.680;9.166;2024-03-25T02:34:50;1.80;;;1.13;;
6751;SDS011;3413;47.680;9.166;2024-03-25T02:40:01;3.43;;;1.10;;
6751;SDS011;3413;47.680;9.166;2024-03-25T02:45:10;2.97;;;1.03;;
6751;SDS011;3413;47.680;9.166;2024-03-25T02:50:17;1.20;;;0.70;;
6751;SDS011;3413;47.680;9.166;2024-03-25T02:55:25;2.90;;;1.20;;
6751;SDS011;3413;47.680;9.166;2024-03-25T03:01:04;4.53;;;1.10;;
6751;SDS011;3413;47.680;9.166;2024-03-25T03:06:16;2.90;;;1.10;;
6751;SDS011;3413;47.680;9.166;2024-03-25T03:11:43;2.63;;;1.00;;
6751;SDS011;3413;47.680;9.166;2024-03-25T03:16:59;3.27;;;1.50;;
6751;SDS011;3413;47.680;9.166;2024-03-25T03:22:09;1.50;;;1.03;;
6751;SDS011;3413;47.680;9.166;2024-03-25T03:27:17;2.13;;;0.90;;
6751;SDS011;3413;47.680;9.166;2024-03-25T03:32:28;4.33;;;1.40;;
6751;SDS011;3413;47.680;9.166;2024-03-25T03:37:39;1.80;;;0.97;;
6751;SDS011;3413;47.680;9.166;2024-03-25T03:43:16;1.87;;;1.00;;
6751;SDS011;3413;47.680;9.166;2024-03-25T03:49:06;3.30;;;1.43;;
6751;SDS011;3413;47.680;9.166;2024-03-25T03:54:47;2.73;;;1.07;;
6751;SDS011;3413;47.680;9.166;2024-03-25T04:05:29;2.10;;;1.40;;
6751;SDS011;3413;47.680;9.166;2024-03-25T04:10:31;2.60;;;1.03;;
6751;SDS011;3413;47.680;9.166;2024-03-25T04:15:33;2.57;;;1.20;;
6751;SDS011;3413;47.680;9.166;2024-03-25T04:20:41;1.57;;;0.80;;
6751;SDS011;3413;47.680;9.166;2024-03-25T04:25:42;2.70;;;1.23;;
6751;SDS011;3413;47.680;9.166;2024-03-25T04:30:43;1.73;;;1.10;;
6751;SDS011;3413;47.680;9.166;2024-03-25T04:35:50;3.80;;;1.10;;
6751;SDS011;3413;47.680;9.166;2024-03-25T04:40:51;2.20;;;1.20;;
6751;SDS011;3413;47.680;9.166;2024-03-25T04:45:52;5.60;;;1.30;;
6751;SDS011;3413;47.680;9.166;2024-03-25T04:50:53;2.63;;;1.00;;
6751;SDS011;3413;47.680;9.166;2024-03-25T04:55:55;5.27;;;1.57;;
6751;SDS011;3413;47.680;9.166;2024-03-25T05:00:56;6.20;;;1.60;;
6751;SDS011;3413;47.680;9.166;2024-03-25T05:05:56;1.50;;;0.90;;
6751;SDS011;3413;47.680;9.166;2024-03-25T05:10:58;1.93;;;1.10;;
6751;SDS011;3413;47.680;9.166;2024-03-25T05:16:01;3.03;;;1.53;;
6751;SDS011;3413;47.680;9.166;2024-03-25T05:21:02;2.30;;;1.13;;
6751;SDS011;3413;47.680;9.166;2024-03-25T05:26:03;1.87;;;1.23;;
6751;SDS011;3413;47.680;9.166;2024-03-25T05:31:07;3.93;;;1.50;;
6751;SDS011;3413;47.680;9.166;2024-03-25T05:36:09;2.60;;;1.40;;
6751;SDS011;3413;47.680;9.166;2024-03-25T05:41:10;3.43;;;1.63;;
6751;SDS011;3413;47.680;9.166;2024-03-25T05:46:11;4.00;;;1.07;;
6751;SDS011;3413;47.680;9.166;2024-03-25T05:51:12;4.63;;;1.30;;
6751;SDS011;3413;47.680;9.166;2024-03-25T05:56:15;2.57;;;1.47;;
6751;SDS011;3413;47.680;9.166;2024-03-25T06:01:16;2.33;;;1.30;;
6751;SDS011;3413;47.680;9.166;2024-03-25T06:06:17;6.33;;;1.70;;
6751;SDS011;3413;47.680;9.166;2024-03-25T06:11:18;2.97;;;1.60;;
6751;SDS011;3413;47.680;9.166;2024-03-25T06:16:19;5.17;;;2.10;;
6751;SDS011;3413;47.680;9.166;2024-03-25T06:21:19;2.43;;;1.70;;
6751;SDS011;3413;47.680;9.166;2024-03-25T06:26:21;5.33;;;2.00;;
6751;SDS011;3413;47.680;9.166;2024-03-25T06:31:22;3.10;;;1.90;;
6751;SDS011;3413;47.680;9.166;2024-03-25T06:36:42;3.87;;;1.60;;
6751;SDS011;3413;47.680;9.166;2024-03-25T06:41:43;3.93;;;2.37;;
6751;SDS011;3413;47.680;9.166;2024-03-25T06:46:43;3.30;;;2.10;;
6751;SDS011;3413;47.680;9.166;2024-03-25T06:51:44;5.20;;;1.70;;
6751;SDS011;3413;47.680;9.166;2024-03-25T06:56:45;4.30;;;2.00;;
6751;SDS011;3413;47.680;9.166;2024-03-25T07:01:46;6.10;;;1.93;;
6751;SDS011;3413;47.680;9.166;2024-03-25T07:06:47;3.87;;;1.87;;
6751;SDS011;3413;47.680;9.166;2024-03-25T07:11:48;2.20;;;1.70;;
6751;SDS011;3413;47.680;9.166;2024-03-25T07:16:50;3.13;;;1.70;;
6751;SDS011;3413;47.680;9.166;2024-03-25T07:21:50;2.50;;;1.37;;
6751;SDS011;3413;47.680;9.166;2024-03-25T07:26:52;5.23;;;1.97;;
6751;SDS011;3413;47.680;9.166;2024-03-25T07:31:53;5.07;;;1.33;;
6751;SDS011;3413;47.680;9.166;2024-03-25T07:36:54;3.40;;;1.30;;
6751;SDS011;3413;47.680;9.166;2024-03-25T07:41:55;1.13;;;0.90;;
6751;SDS011;3413;47.680;9.166;2024-03-25T07:46:55;2.13;;;0.90;;
6751;SDS011;3413;47.680;9.166;2024-03-25T07:51:56;2.43;;;1.33;;
6751;SDS011;3413;47.680;9.166;2024-03-25T07:56:57;3.00;;;1.40;;
6751;SDS011;3413;47.680;9.166;2024-03-25T08:01:58;3.63;;;1.47;;
6751;SDS011;3413;47.680;9.166;2024-03-25T08:06:59;2.80;;;1.33;;
6751;SDS011;3413;47.680;9.166;2024-03-25T08:12:00;2.50;;;1.10;;
6751;SDS011;3413;47.680;9.166;2024-03-25T08:17:01;5.40;;;2.40;;
6751;SDS011;3413;47.680;9.166;2024-03-25T08:22:04;4.40;;;1.10;;
6751;SDS011;3413;47.680;9.166;2024-03-25T08:27:05;8.10;;;1.10;;
6751;SDS011;3413;47.680;9.166;2024-03-25T08:32:06;2.53;;;1.30;;
6751;SDS011;3413;47.680;9.166;2024-03-25T08:37:07;1.93;;;1.10;;
6751;SDS011;3413;47.680;9.166;2024-03-25T08:42:08;3.33;;;1.70;;
6751;SDS011;3413;47.680;9.166;2024-03-25T08:47:09;4.47;;;2.20;;
6751;SDS011;3413;47.680;9.166;2024-03-25T08:52:10;8.10;;;3.00;;
6751;SDS011;3413;47.680;9.166;2024-03-25T08:57:11;3.20;;;1.60;;
6751;SDS011;3413;47.680;9.166;2024-03-25T09:02:12;3.97;;;1.70;;
6751;SDS011;3413;47.680;9.166;2024-03-25T09:07:16;2.53;;;1.17;;
6751;SDS011;3413;47.680;9.166;2024-03-25T09:12:17;3.13;;;2.10;;
6751;SDS011;3413;47.680;9.166;2024-03-25T09:17:18;6.13;;;1.57;;
6751;SDS011;3413;47.680;9.166;2024-03-25T09:22:19;4.87;;;1.20;;
6751;SDS011;3413;47.680;9.166;2024-03-25T09:27:20;3.87;;;1.30;;
6751;SDS011;3413;47.680;9.166;2024-03-25T09:32:21;3.53;;;1.20;;
6751;SDS011;3413;47.680;9.166;2024-03-25T09:37:26;3.43;;;1.40;;
6751;SDS011;3413;47.680;9.166;2024-03-25T09:42:27;6.90;;;1.33;;
6751;SDS011;3413;47.680;9.166;2024-03-25T09:47:33;2.83;;;1.30;;
6751;SDS011;3413;47.680;9.166;2024-03-25T09:52:35;2.53;;;1.40;;
6751;SDS011;3413;47.680;9.166;2024-03-25T09:57:36;3.50;;;1.80;;
6751;SDS011;3413;47.680;9.166;2024-03-25T10:02:39;3.87;;;1.60;;
6751;SDS011;3413;47.680;9.166;2024-03-25T10:07:40;2.03;;;1.27;;
6751;SDS011;3413;47.680;9.166;2024-03-25T10:12:41;2.73;;;1.10;;
6751;SDS011;3413;47.680;9.166;2024-03-25T10:23:11;1.60;;;1.00;;
6751;SDS011;3413;47.680;9.166;2024-03-25T10:28:12;3.67;;;1.07;;
6751;SDS011;3413;47.680;9.166;2024-03-25T10:33:14;4.07;;;1.50;;
6751;SDS011;3413;47.680;9.166;2024-03-25T10:38:15;2.23;;;1.27;;
6751;SDS011;3413;47.680;9.166;2024-03-25T10:43:18;4.20;;;1.40;;
6751;SDS011;3413;47.680;9.166;2024-03-25T10:48:35;1.53;;;1.13;;
6751;SDS011;3413;47.680;9.166;2024-03-25T10:53:40;3.23;;;1.10;;
6751;SDS011;3413;47.680;9.166;2024-03-25T10:58:43;2.57;;;1.27;;
6751;SDS011;3413;47.680;9.166;2024-03-25T11:03:47;1.90;;;1.50;;
6751;SDS011;3413;47.680;9.166;2024-03-25T11:08:56;2.43;;;1.10;;
6751;SDS011;3413;47.680;9.166;2024-03-25T11:13:58;2.70;;;1.03;;
6751;SDS011;3413;47.680;9.166;2024-03-25T11:19:03;1.80;;;1.20;;
6751;SDS011;3413;47.680;9.166;2024-03-25T11:24:07;2.17;;;1.00;;
6751;SDS011;3413;47.680;9.166;2024-03-25T11:29:09;1.87;;;1.10;;
6751;SDS011;3413;47.680;9.166;2024-03-25T11:34:10;2.70;;;1.20;;
6751;SDS011;3413;47.680;9.166;2024-03-25T11:39:12;1.40;;;0.90;;
6751;SDS011;3413;47.680;9.166;2024-03-25T11:44:13;2.10;;;0.90;;
6751;SDS011;3413;47.680;9.166;2024-03-25T11:49:15;1.67;;;0.93;;
6751;SDS011;3413;47.680;9.166;2024-03-25T11:54:18;2.37;;;0.90;;
6751;SDS011;3413;47.680;9.166;2024-03-25T11:59:20;4.03;;;1.33;;
6751;SDS011;3413;47.680;9.166;2024-03-25T12:04:21;2.50;;;1.00;;
6751;SDS011;3413;47.680;9.166;2024-03-25T12:09:23;3.83;;;0.90;;
6751;SDS011;3413;47.680;9.166;2024-03-25T12:14:43;3.47;;;1.00;;
6751;SDS011;3413;47.680;9.166;2024-03-25T12:19:44;1.30;;;0.90;;
6751;SDS011;3413;47.680;9.166;2024-03-25T12:24:59;2.37;;;1.20;;
6751;SDS011;3413;47.680;9.166;2024-03-25T12:30:01;1.60;;;0.90;;
6751;SDS011;3413;47.680;9.166;2024-03-25T12:35:11;2.33;;;1.00;;
6751;SDS011;3413;47.680;9.166;2024-03-25T12:40:26;1.40;;;0.90;;
6751;SDS011;3413;47.680;9.166;2024-03-25T12:45:28;1.30;;;0.80;;
6751;SDS011;3413;47.680;9.166;2024-03-25T12:50:29;1.20;;;0.67;;
6751;SDS011;3413;47.680;9.166;2024-03-25T12:55:30;1.00;;;0.70;;
6751;SDS011;3413;47.680;9.166;2024-03-25T13:00:31;1.10;;;0.70;;
6751;SDS011;3413;47.680;9.166;2024-03-25T13:05:32;1.00;;;0.63;;
6751;SDS011;3413;47.680;9.166;2024-03-25T13:10:34;1.30;;;0.73;;
6751;SDS011;3413;47.680;9.166;2024-03-25T13:15:35;1.50;;;0.80;;
6751;SDS011;3413;47.680;9.166;2024-03-25T13:20:36;2.30;;;1.07;;
6751;SDS011;3413;47.680;9.166;2024-03-25T13:25:37;1.60;;;0.80;;
6751;SDS011;3413;47.680;9.166;2024-03-25T13:30:38;1.63;;;0.87;;
6751;SDS011;3413;47.680;9.166;2024-03-25T13:35:39;1.33;;;0.70;;
6751;SDS011;3413;47.680;9.166;2024-03-25T13:40:40;1.93;;;0.70;;
6751;SDS011;3413;47.680;9.166;2024-03-25T13:45:46;1.07;;;0.67;;
6751;SDS011;3413;47.680;9.166;2024-03-25T13:50:48;2.13;;;0.80;;
6751;SDS011;3413;47.680;9.166;2024-03-25T13:55:48;4.60;;;0.80;;
6751;SDS011;3413;47.680;9.166;2024-03-25T14:00:49;1.13;;;0.60;;
6751;SDS011;3413;47.680;9.166;2024-03-25T14:05:50;2.80;;;0.80;;
6751;SDS011;3413;47.680;9.166;2024-03-25T14:10:58;0.90;;;0.60;;
6751;SDS011;3413;47.680;9.166;2024-03-25T14:16:00;1.40;;;0.70;;
6751;SDS011;3413;47.680;9.166;2024-03-25T14:21:01;6.60;;;0.70;;
6751;SDS011;3413;47.680;9.166;2024-03-25T14:26:02;2.70;;;1.10;;
6751;SDS011;3413;47.680;9.166;2024-03-25T14:31:03;1.60;;;0.90;;
6751;SDS011;3413;47.680;9.166;2024-03-25T14:36:04;1.50;;;0.70;;
6751;SDS011;3413;47.680;9.166;2024-03-25T14:41:05;2.47;;;1.37;;
6751;SDS011;3413;47.680;9.166;2024-03-25T14:46:06;1.87;;;0.90;;
6751;SDS011;3413;47.680;9.166;2024-03-25T14:51:07;1.03;;;0.70;;
6751;SDS011;3413;47.680;9.166;2024-03-25T14:56:08;2.33;;;0.73;;
6751;SDS011;3413;47.680;9.166;2024-03-25T15:01:09;2.00;;;0.73;;
6751;SDS011;3413;47.680;9.166;2024-03-25T15:06:10;1.83;;;0.70;;
6751;SDS011;3413;47.680;9.166;2024-03-25T15:11:11;1.07;;;0.50;;
6751;SDS011;3413;47.680;9.166;2024-03-25T15:16:12;1.57;;;0.80;;
6751;SDS011;3413;47.680;9.166;2024-03-25T15:21:13;0.97;;;0.63;;
6751;SDS011;3413;47.680;9.166;2024-03-25T15:26:14;1.60;;;0.80;;
6751;SDS011;3413;47.680;9.166;2024-03-25T15:31:15;0.90;;;0.50;;
6751;SDS011;3413;47.680;9.166;2024-03-25T15:36:16;1.00;;;0.70;;
6751;SDS011;3413;47.680;9.166;2024-03-25T15:41:17;1.00;;;0.60;;
6751;SDS011;3413;47.680;9.166;2024-03-25T15:46:18;0.80;;;0.50;;
6751;SDS011;3413;47.680;9.166;2024-03-25T15:51:19;0.90;;;0.60;;
6751;SDS011;3413;47.680;9.166;2024-03-25T15:56:20;2.30;;;0.83;;
6751;SDS011;3413;47.680;9.166;2024-03-25T16:01:21;2.10;;;0.90;;
6751;SDS011;3413;47.680;9.166;2024-03-25T16:06:22;1.93;;;0.90;;
6751;SDS011;3413;47.680;9.166;2024-03-25T16:11:23;1.20;;;0.77;;
6751;SDS011;3413;47.680;9.166;2024-03-25T16:16:24;1.60;;;0.83;;
6751;SDS011;3413;47.680;9.166;2024-03-25T16:21:35;0.90;;;0.60;;
6751;SDS011;3413;47.680;9.166;2024-03-25T16:26:36;1.00;;;0.60;;
6751;SDS011;3413;47.680;9.166;2024-03-25T16:31:37;0.90;;;0.60;;
6751;SDS011;3413;47.680;9.166;2024-03-25T16:36:38;1.30;;;0.90;;
6751;SDS011;3413;47.680;9.166;2024-03-25T16:41:39;2.07;;;0.90;;
6751;SDS011;3413;47.680;9.166;2024-03-25T16:46:40;0.90;;;0.70;;
6751;SDS011;3413;47.680;9.166;2024-03-25T16:51:41;1.57;;;0.90;;
6751;SDS011;3413;47.680;9.166;2024-03-25T16:56:42;2.20;;;0.70;;
6751;SDS011;3413;47.680;9.166;2024-03-25T17:01:43;1.30;;;0.80;;
6751;SDS011;3413;47.680;9.166;2024-03-25T17:06:44;4.70;;;0.80;;
6751;SDS011;3413;47.680;9.166;2024-03-25T17:11:46;5.27;;;0.93;;
6751;SDS011;3413;47.680;9.166;2024-03-25T17:16:48;2.27;;;1.17;;
6751;SDS011;3413;47.680;9.166;2024-03-25T17:21:49;1.80;;;0.90;;
6751;SDS011;3413;47.680;9.166;2024-03-25T17:26:50;0.90;;;0.60;;
6751;SDS011;3413;47.680;9.166;2024-03-25T17:31:51;1.20;;;0.77;;
6751;SDS011;3413;47.680;9.166;2024-03-25T17:36:52;1.53;;;1.07;;
6751;SDS011;3413;47.680;9.166;2024-03-25T17:41:53;2.53;;;1.10;;
6751;SDS011;3413;47.680;9.166;2024-03-25T17:46:55;1.20;;;1.00;;
6751;SDS011;3413;47.680;9.166;2024-03-25T17:51:57;3.90;;;1.40;;
6751;SDS011;3413;47.680;9.166;2024-03-25T17:56:58;2.60;;;1.30;;
6751;SDS011;3413;47.680;9.166;2024-03-25T18:02:00;2.10;;;1.40;;
6751;SDS011;3413;47.680;9.166;2024-03-25T18:07:01;3.63;;;1.57;;
6751;SDS011;3413;47.680;9.166;2024-03-25T18:12:02;2.60;;;1.20;;
6751;SDS011;3413;47.680;9.166;2024-03-25T18:17:03;3.13;;;1.10;;
6751;SDS011;3413;47.680;9.166;2024-03-25T18:22:04;2.37;;;0.90;;
6751;SDS011;3413;47.680;9.166;2024-03-25T18:27:05;2.20;;;1.10;;
6751;SDS011;3413;47.680;9.166;2024-03-25T18:32:07;1.80;;;1.00;;
6751;SDS011;3413;47.680;9.166;2024-03-25T18:37:08;2.93;;;1.37;;
6751;SDS011;3413;47.680;9.166;2024-03-25T18:42:09;4.40;;;1.87;;
6751;SDS011;3413;47.680;9.166;2024-03-25T18:47:10;2.67;;;1.83;;
6751;SDS011;3413;47.680;9.166;2024-03-25T18:52:12;2.83;;;1.17;;
6751;SDS011;3413;47.680;9.166;2024-03-25T18:57:13;1.50;;;1.00;;
6751;SDS011;3413;47.680;9.166;2024-03-25T19:02:14;3.33;;;1.00;;
6751;SDS011;3413;47.680;9.166;2024-03-25T19:07:15;1.63;;;1.03;;
6751;SDS011;3413;47.680;9.166;2024-03-25T19:12:16;2.90;;;1.00;;
6751;SDS011;3413;47.680;9.166;2024-03-25T19:17:17;2.40;;;1.03;;
6751;SDS011;3413;47.680;9.166;2024-03-25T19:22:18;1.27;;;0.90;;
6751;SDS011;3413;47.680;9.166;2024-03-25T19:27:19;2.37;;;1.20;;
6751;SDS011;3413;47.680;9.166;2024-03-25T19:32:20;4.40;;;1.30;;
6751;SDS011;3413;47.680;9.166;2024-03-25T19:37:21;1.20;;;0.93;;
6751;SDS011;3413;47.680;9.166;2024-03-25T19:42:22;6.37;;;1.70;;
6751;SDS011;3413;47.680;9.166;2024-03-25T19:47:23;1.67;;;1.20;;
6751;SDS011;3413;47.680;9.166;2024-03-25T19:52:26;1.63;;;0.90;;
6751;SDS011;3413;47.680;9.166;2024-03-25T19:57:27;3.97;;;1.00;;
6751;SDS011;3413;47.680;9.166;2024-03-25T20:02:28;5.90;;;1.23;;
6751;SDS011;3413;47.680;9.166;2024-03-25T20:07:29;1.23;;;1.10;;
6751;SDS011;3413;47.680;9.166;2024-03-25T20:12:31;1.47;;;1.00;;
6751;SDS011;3413;47.680;9.166;2024-03-25T20:17:32;2.07;;;1.27;;
6751;SDS011;3413;47.680;9.166;2024-03-25T20:22:33;2.40;;;1.37;;
6751;SDS011;3413;47.680;9.166;2024-03-25T20:27:34;4.93;;;0.93;;
6751;SDS011;3413;47.680;9.166;2024-03-25T20:32:35;2.43;;;1.37;;
6751;SDS011;3413;47.680;9.166;2024-03-25T20:37:36;3.00;;;1.60;;
6751;SDS011;3413;47.680;9.166;2024-03-25T20:42:37;1.33;;;1.07;;
6751;SDS011;3413;47.680;9.166;2024-03-25T20:47:38;3.40;;;1.43;;
6751;SDS011;3413;47.680;9.166;2024-03-25T20:52:39;1.60;;;1.17;;
6751;SDS011;3413;47.680;9.166;2024-03-25T20:57:41;2.00;;;1.23;;
6751;SDS011;3413;47.680;9.166;2024-03-25T21:02:42;2.17;;;1.30;;
6751;SDS011;3413;47.680;9.166;2024-03-25T21:07:43;2.10;;;1.23;;
6751;SDS011;3413;47.680;9.166;2024-03-25T21:12:44;1.87;;;1.20;;
6751;SDS011;3413;47.680;9.166;2024-03-25T21:17:45;2.77;;;1.27;;
6751;SDS011;3413;47.680;9.166;2024-03-25T21:22:46;3.07;;;1.20;;
6751;SDS011;3413;47.680;9.166;2024-03-25T21:27:47;3.53;;;1.40;;
6751;SDS011;3413;47.680;9.166;2024-03-25T21:32:48;2.40;;;1.40;;
6751;SDS011;3413;47.680;9.166;2024-03-25T21:37:49;1.80;;;1.17;;
6751;SDS011;3413;47.680;9.166;2024-03-25T21:42:50;1.60;;;1.07;;
6751;SDS011;3413;47.680;9.166;2024-03-25T21:47:51;1.17;;;1.00;;
6751;SDS011;3413;47.680;9.166;2024-03-25T21:52:53;1.53;;;0.90;;
6751;SDS011;3413;47.680;9.166;2024-03-25T21:57:54;3.33;;;1.20;;
6751;SDS011;3413;47.680;9.166;2024-03-25T22:02:56;2.67;;;1.20;;
6751;SDS011;3413;47.680;9.166;2024-03-25T22:07:57;1.43;;;1.10;;
6751;SDS011;3413;47.680;9.166;2024-03-25T22:12:58;1.50;;;1.10;;
6751;SDS011;3413;47.680;9.166;2024-03-25T22:18:03;3.20;;;1.63;;
6751;SDS011;3413;47.680;9.166;2024-03-25T22:23:05;2.70;;;1.23;;
6751;SDS011;3413;47.680;9.166;2024-03-25T22:28:06;2.10;;;1.10;;
6751;SDS011;3413;47.680;9.166;2024-03-25T22:33:07;2.10;;;1.17;;
6751;SDS011;3413;47.680;9.166;2024-03-25T22:38:08;2.53;;;1.30;;
6751;SDS011;3413;47.680;9.166;2024-03-25T22:43:09;3.97;;;1.40;;
6751;SDS011;3413;47.680;9.166;2024-03-25T22:48:10;3.13;;;1.43;;
6751;SDS011;3413;47.680;9.166;2024-03-25T22:53:11;5.33;;;1.70;;
6751;SDS011;3413;47.680;9.166;2024-03-25T22:58:12;3.07;;;1.20;;
6751;SDS011;3413;47.680;9.166;2024-03-25T23:03:13;3.80;;;1.40;;
6751;SDS011;3413;47.680;9.166;2024-03-25T23:08:14;2.70;;;1.30;;
6751;SDS011;3413;47.680;9.166;2024-03-25T23:13:15;2.47;;;1.37;;
6751;SDS011;3413;47.680;9.166;2024-03-25T23:18:16;3.87;;;1.57;;
6751;SDS011;3413;47.680;9.166;2024-03-25T23:23:17;4.07;;;1.63;;
6751;SDS011;3413;47.680;9.166;2024-03-25T23:28:18;5.37;;;1.40;;
6751;SDS011;3413;47.680;9.166;2024-03-25T23:33:19;2.30;;;1.00;;
6751;SDS011;3413;47.680;9.166;2024-03-25T23:38:20;3.63;;;1.43;;
6751;SDS011;3413;47.680;9.166;2024-03-25T23:43:21;3.57;;;1.47;;
6751;SDS011;3413;47.680;9.166;2024-03-25T23:48:22;2.47;;;1.23;;
6751;SDS011;3413;47.680;9.166;2024-03-25T23:53:24;2.70;;;1.03;;
6751;SDS011;3413;47.680;9.166;2024-03-25T23:58:25;2.03;;;1.23;;
